createdAt,value
2018-02-09T00:00:28.296Z,105.12
2018-02-09T00:03:00.692Z,103.47
2018-02-09T00:05:28.213Z,105.47
2018-02-09T00:08:00.142Z,96.07
2018-02-09T00:10:27.746Z,96.03
2018-02-09T00:12:55.241Z,98.18
2018-02-09T00:15:23.164Z,103.03
2018-02-09T00:17:52.373Z,116.18
2018-02-09T00:20:21.694Z,98.05
2018-02-09T00:22:53.700Z,112.60
2018-02-09T00:25:21.608Z,118.45
2018-02-09T00:28:00.720Z,105.70
2018-02-09T00:30:28.992Z,98.05
2018-02-09T00:32:56.485Z,114.65
2018-02-09T00:35:24.814Z,104.53
2018-02-09T00:37:53.568Z,99.10
2018-02-09T00:40:21.717Z,118.25
2018-02-09T00:42:52.462Z,102.05
2018-02-09T00:45:35.838Z,101.28
2018-02-09T00:48:03.369Z,96.25
2018-02-09T00:50:31.033Z,108.57
2018-02-09T00:52:58.596Z,104.78
2018-02-09T00:55:26.886Z,97.95
2018-02-09T00:57:54.388Z,98.05
2018-02-09T01:00:22.921Z,114.60
2018-02-09T01:02:51.602Z,90.20
2018-02-09T01:06:03.334Z,99.20
2018-02-09T01:08:31.228Z,108.43
2018-02-09T01:10:58.740Z,101.38
2018-02-09T01:13:26.302Z,105.18
2018-02-09T01:15:54.121Z,106.85
2018-02-09T01:18:27.120Z,104.55
2018-02-09T01:21:01.148Z,105.37
2018-02-09T01:23:28.639Z,108.97
2018-02-09T01:25:56.269Z,96.97
2018-02-09T01:28:24.134Z,103.03
2018-02-09T01:30:52.860Z,97.45
2018-02-09T01:33:22.453Z,102.18
2018-02-09T01:35:52.454Z,104.90
2018-02-09T01:38:23.232Z,88.45
2018-02-09T01:40:53.818Z,97.03
2018-02-09T01:43:24.560Z,100.70
2018-02-09T01:45:54.194Z,105.05
2018-02-09T01:48:28.514Z,98.45
2018-02-09T01:50:56.037Z,97.62
2018-02-09T01:53:24.372Z,89.35
2018-02-09T01:55:57.685Z,91.47
2018-02-09T01:58:28.097Z,91.40
2018-02-09T02:00:55.619Z,96.10
2018-02-09T02:03:23.459Z,97.03
2018-02-09T02:06:04.696Z,87.57
2018-02-09T02:08:32.484Z,94.07
2018-02-09T02:11:00.769Z,93.00
2018-02-09T02:13:34.192Z,90.40
2018-02-09T02:16:23.753Z,77.45
2018-02-09T02:19:09.038Z,91.28
2018-02-09T02:21:36.636Z,88.72
2018-02-09T02:24:04.133Z,97.57
2018-02-09T02:26:31.644Z,93.62
2018-02-09T02:28:59.136Z,84.10
2018-02-09T02:31:26.753Z,84.03
2018-02-09T02:34:05.662Z,87.20
2018-02-09T02:36:33.177Z,90.80
2018-02-09T02:39:01.445Z,93.43
2018-02-09T02:41:29.045Z,84.72
2018-02-09T02:43:57.307Z,91.15
2018-02-09T02:46:24.825Z,84.30
2018-02-09T02:48:54.979Z,92.10
2018-02-09T02:51:34.362Z,88.00
2018-02-09T02:54:02.281Z,83.62
2018-02-09T02:56:53.778Z,84.57
2018-02-09T02:59:23.724Z,92.65
2018-02-09T03:01:54.173Z,100.30
2018-02-09T03:04:23.980Z,93.62
2018-02-09T03:06:52.417Z,92.15
2018-02-09T03:09:25.356Z,93.28
2018-02-09T03:11:53.377Z,94.43
2018-02-09T03:14:22.505Z,97.85
2018-02-09T03:17:01.897Z,97.43
2018-02-09T03:19:29.392Z,88.30
2018-02-09T03:21:56.905Z,91.45
2018-02-09T03:24:24.400Z,98.55
2018-02-09T03:26:52.409Z,100.00
2018-02-09T03:29:20.874Z,109.70
2018-02-09T03:31:52.432Z,93.87
2018-02-09T03:34:25.096Z,93.65
2018-02-09T03:36:53.752Z,94.20
2018-02-09T03:39:23.583Z,86.25
2018-02-09T03:41:52.364Z,85.30
2018-02-09T03:44:21.530Z,89.90
2018-02-09T03:46:50.462Z,86.10
2018-02-09T03:49:22.417Z,99.13
2018-02-09T03:51:56.984Z,92.80
2018-02-09T03:54:53.088Z,88.80
2018-02-09T03:57:30.909Z,91.10
2018-02-09T03:59:58.405Z,84.97
2018-02-09T04:02:25.924Z,92.47
2018-02-09T04:04:53.469Z,80.65
2018-02-09T04:07:22.364Z,90.65
2018-02-09T04:09:54.574Z,95.15
2018-02-09T04:12:22.581Z,88.25
2018-02-09T04:14:55.253Z,93.20
2018-02-09T04:17:25.810Z,83.35
2018-02-09T04:19:55.273Z,102.55
2018-02-09T04:22:36.709Z,90.82
2018-02-09T04:25:04.328Z,94.78
2018-02-09T04:27:31.848Z,90.40
2018-02-09T04:30:00.108Z,80.62
2018-02-09T04:32:30.717Z,79.70
2018-02-09T04:34:58.209Z,84.55
2018-02-09T04:37:25.724Z,83.80
2018-02-09T04:39:53.221Z,86.50
2018-02-09T04:42:36.907Z,76.20
2018-02-09T04:45:05.762Z,83.47
2018-02-09T04:47:34.248Z,91.07
2018-02-09T04:50:01.812Z,91.70
2018-02-09T04:52:29.324Z,84.15
2018-02-09T04:55:02.835Z,77.90
2018-02-09T04:57:30.344Z,85.53
2018-02-09T04:59:57.839Z,82.88
2018-02-09T05:02:25.365Z,65.93
2018-02-09T05:04:53.629Z,82.43
2018-02-09T05:07:24.400Z,77.97
2018-02-09T05:09:54.709Z,107.25
2018-02-09T05:12:22.684Z,84.00
2018-02-09T05:14:54.180Z,93.90
2018-02-09T05:17:50.942Z,88.68
2018-02-09T05:20:23.565Z,72.55
2018-02-09T05:22:51.972Z,84.65
2018-02-09T05:25:24.000Z,84.40
2018-02-09T05:27:53.544Z,79.60
2018-02-09T05:30:21.040Z,72.82
2018-02-09T05:32:53.743Z,84.25
2018-02-09T05:35:33.933Z,76.22
2018-02-09T05:38:02.499Z,80.32
2018-02-09T05:40:30.780Z,82.00
2018-02-09T05:42:59.052Z,79.43
2018-02-09T05:48:21.182Z,84.57
2018-02-09T05:50:54.048Z,86.87
2018-02-09T05:53:23.776Z,79.80
2018-02-09T05:56:00.061Z,82.78
2018-02-09T05:58:28.336Z,65.60
2018-02-09T06:00:55.828Z,89.87
2018-02-09T06:03:24.104Z,78.95
2018-02-09T06:05:51.776Z,91.47
2018-02-09T06:08:23.164Z,84.45
2018-02-09T06:10:54.069Z,83.87
2018-02-09T06:13:24.628Z,75.55
2018-02-09T06:15:53.857Z,89.97
2018-02-09T06:18:23.224Z,91.90
2018-02-09T06:20:52.336Z,91.65
2018-02-09T06:23:30.988Z,95.55
2018-02-09T06:25:59.324Z,99.97
2018-02-09T06:28:26.836Z,93.30
2018-02-09T06:30:55.301Z,99.95
2018-02-09T06:33:23.785Z,97.53
2018-02-09T06:35:55.124Z,95.72
2018-02-09T06:38:23.195Z,95.62
2018-02-09T06:40:54.773Z,99.18
2018-02-09T06:43:24.843Z,93.20
2018-02-09T06:45:55.009Z,85.97
2018-02-09T06:48:24.933Z,78.87
2018-02-09T06:50:52.500Z,88.07
2018-02-09T06:53:28.469Z,79.15
2018-02-09T06:55:56.022Z,86.53
2018-02-09T06:58:25.373Z,79.62
2018-02-09T07:00:53.912Z,90.65
2018-02-09T07:03:24.088Z,82.65
2018-02-09T07:05:54.173Z,69.20
2018-02-09T07:08:23.284Z,87.07
2018-02-09T07:10:53.201Z,84.20
2018-02-09T07:13:27.537Z,87.37
2018-02-09T07:15:55.424Z,78.82
2018-02-09T07:18:24.140Z,77.55
2018-02-09T07:20:54.181Z,78.00
2018-02-09T07:23:22.108Z,60.38
2018-02-09T07:25:51.659Z,74.25
2018-02-09T07:28:21.334Z,77.25
2018-02-09T07:30:53.029Z,68.05
2018-02-09T07:33:24.274Z,72.25
2018-02-09T07:35:52.573Z,76.00
2018-02-09T07:38:20.151Z,65.85
2018-02-09T07:40:49.886Z,82.95
2018-02-09T07:43:17.674Z,77.18
2018-02-09T07:45:45.691Z,81.93
2018-02-09T07:48:18.842Z,72.55
2018-02-09T07:50:50.285Z,67.18
2018-02-09T07:53:21.401Z,76.32
2018-02-09T07:55:53.316Z,71.30
2018-02-09T07:58:23.774Z,73.35
2018-02-09T08:00:53.341Z,82.10
2018-02-09T08:03:23.640Z,89.68
2018-02-09T08:05:53.069Z,73.35
2018-02-09T08:08:23.401Z,67.43
2018-02-09T08:10:53.008Z,75.80
2018-02-09T08:13:22.384Z,67.47
2018-02-09T08:15:53.811Z,78.68
2018-02-09T08:18:24.487Z,76.78
2018-02-09T08:20:53.268Z,70.82
2018-02-09T08:23:24.048Z,67.70
2018-02-09T08:25:54.256Z,65.05
2018-02-09T08:28:23.148Z,84.20
2018-02-09T08:30:53.489Z,74.05
2018-02-09T08:33:23.664Z,74.72
2018-02-09T08:35:53.948Z,75.20
2018-02-09T08:38:22.244Z,81.27
2018-02-09T08:40:52.367Z,76.37
2018-02-09T08:43:22.724Z,69.80
2018-02-09T08:45:52.528Z,69.30
2018-02-09T08:48:31.711Z,75.73
2018-02-09T08:50:59.212Z,72.73
2018-02-09T08:53:26.700Z,67.77
2018-02-09T08:55:54.206Z,66.40
2018-02-09T08:58:23.048Z,73.97
2018-02-09T09:01:00.625Z,70.27
2018-02-09T09:03:28.108Z,68.10
2018-02-09T09:05:55.647Z,79.30
2018-02-09T09:08:23.936Z,74.27
2018-02-09T09:10:53.260Z,65.03
2018-02-09T09:13:31.751Z,72.97
2018-02-09T09:15:59.248Z,78.07
2018-02-09T09:18:27.504Z,70.00
2018-02-09T09:20:55.008Z,70.13
2018-02-09T09:23:23.264Z,77.83
2018-02-09T09:25:51.081Z,76.40
2018-02-09T09:28:19.606Z,67.40
2018-02-09T09:30:48.002Z,70.60
2018-02-09T09:33:17.631Z,73.20
2018-02-09T09:35:47.934Z,64.07
2018-02-09T09:38:18.835Z,67.50
2018-02-09T09:40:49.294Z,76.07
2018-02-09T09:43:18.967Z,64.70
2018-02-09T09:45:46.937Z,77.77
2018-02-09T09:48:17.434Z,82.10
2018-02-09T09:50:56.076Z,82.30
2018-02-09T09:53:23.570Z,79.53
2018-02-09T09:55:51.892Z,85.00
2018-02-09T09:58:19.764Z,82.33
2018-02-09T10:00:47.314Z,81.70
2018-02-09T10:03:14.959Z,76.40
2018-02-09T10:05:43.232Z,91.53
2018-02-09T10:08:11.042Z,95.87
2018-02-09T10:10:38.565Z,92.77
2018-02-09T10:13:06.057Z,87.57
2018-02-09T10:15:33.587Z,85.47
2018-02-09T10:18:01.122Z,90.87
2018-02-09T10:20:29.397Z,88.77
2018-02-09T10:22:56.885Z,91.93
2018-02-09T10:25:25.160Z,104.80
2018-02-09T10:27:52.649Z,96.60
2018-02-09T10:30:20.919Z,102.37
2018-02-09T10:32:48.461Z,97.07
2018-02-09T10:35:16.173Z,95.27
2018-02-09T10:37:44.558Z,90.10
2018-02-09T10:40:14.146Z,86.87
2018-02-09T10:42:41.799Z,102.20
2018-02-09T10:45:09.316Z,102.30
2018-02-09T10:47:37.045Z,93.63
2018-02-09T10:50:04.548Z,93.53
2018-02-09T10:52:32.127Z,100.30
2018-02-09T10:54:59.725Z,99.10
2018-02-09T10:57:28.000Z,103.50
2018-02-09T10:59:55.508Z,104.00
2018-02-09T11:02:22.997Z,113.27
2018-02-09T11:04:50.500Z,95.80
2018-02-09T11:07:18.805Z,95.37
2018-02-09T11:09:46.489Z,105.33
2018-02-09T11:12:14.970Z,89.20
2018-02-09T11:14:42.497Z,95.20
2018-02-09T11:17:10.055Z,92.87
2018-02-09T11:19:37.556Z,90.37
2018-02-09T11:22:05.088Z,88.53
2018-02-09T11:24:32.612Z,105.87
2018-02-09T11:27:00.140Z,84.63
2018-02-09T11:29:27.628Z,85.93
2018-02-09T11:31:55.163Z,85.17
2018-02-09T11:34:23.444Z,76.87
2018-02-09T11:36:51.717Z,74.60
2018-02-09T11:39:19.786Z,76.70
2018-02-09T11:41:47.408Z,75.17
2018-02-09T11:44:15.506Z,60.67
2018-02-09T11:46:43.128Z,74.57
2018-02-09T11:49:11.790Z,70.10
2018-02-09T11:51:40.130Z,76.60
2018-02-09T11:54:07.720Z,77.00
2018-02-09T11:56:36.513Z,69.60
2018-02-09T11:59:05.213Z,79.03
2018-02-09T12:01:32.787Z,66.97
2018-02-09T12:04:01.210Z,70.27
2018-02-09T12:06:28.732Z,76.90
2018-02-09T12:08:56.227Z,69.73
2018-02-09T12:11:24.504Z,74.23
2018-02-09T12:13:52.796Z,90.90
2018-02-09T12:16:21.089Z,67.10
2018-02-09T12:18:49.576Z,65.23
2018-02-09T12:21:17.887Z,63.83
2018-02-09T12:23:45.449Z,74.83
2018-02-09T12:26:16.942Z,63.90
2018-02-09T12:28:44.618Z,56.40
2018-02-09T12:31:12.804Z,62.43
2018-02-09T12:33:40.336Z,72.00
2018-02-09T12:36:08.178Z,59.10
2018-02-09T12:38:35.727Z,65.83
2018-02-09T12:41:03.264Z,63.47
2018-02-09T12:43:30.784Z,56.17
2018-02-09T12:45:58.292Z,65.70
2018-02-09T12:48:25.780Z,64.40
2018-02-09T12:50:54.060Z,67.77
2018-02-09T12:53:21.840Z,60.87
2018-02-09T12:55:50.893Z,60.43
2018-02-09T12:58:19.788Z,74.73
2018-02-09T13:00:48.500Z,66.20
2018-02-09T13:03:18.139Z,64.43
2018-02-09T13:06:15.164Z,70.73
2018-02-09T13:08:48.125Z,57.97
2018-02-09T13:11:20.186Z,66.90
2018-02-09T13:13:59.741Z,66.93
2018-02-09T13:16:27.252Z,67.53
2018-02-09T13:18:54.754Z,69.30
2018-02-09T13:21:22.629Z,71.53
2018-02-09T13:24:02.084Z,66.07
2018-02-09T13:26:29.584Z,72.90
2018-02-09T13:28:59.809Z,65.83
2018-02-09T13:31:27.312Z,61.63
2018-02-09T13:33:54.806Z,69.30
2018-02-09T13:36:35.390Z,73.03
2018-02-09T13:39:03.053Z,64.33
2018-02-09T13:41:30.573Z,70.83
2018-02-09T13:43:58.060Z,76.03
2018-02-09T13:46:27.684Z,65.50
2018-02-09T13:48:55.196Z,68.80
2018-02-09T13:51:33.720Z,66.20
2018-02-09T13:54:01.318Z,71.67
2018-02-09T13:56:29.696Z,65.47
2018-02-09T13:58:57.209Z,59.67
2018-02-09T14:01:36.385Z,65.60
2018-02-09T14:04:03.878Z,70.40
2018-02-09T14:06:31.365Z,62.73
2018-02-09T14:09:02.556Z,60.13
2018-02-09T14:11:30.047Z,71.00
2018-02-09T14:13:58.328Z,63.97
2018-02-09T14:16:25.908Z,71.23
2018-02-09T14:18:53.684Z,63.40
2018-02-09T14:21:24.893Z,67.50
2018-02-09T14:23:55.133Z,63.67
2018-02-09T14:26:25.119Z,64.80
2018-02-09T14:28:54.580Z,67.37
2018-02-09T14:31:24.737Z,69.13
2018-02-09T14:33:52.929Z,69.80
2018-02-09T14:36:22.876Z,64.87
2018-02-09T14:38:53.059Z,70.70
2018-02-09T14:41:20.929Z,58.43
2018-02-09T14:43:53.566Z,51.07
2018-02-09T14:46:23.764Z,58.43
2018-02-09T14:48:54.792Z,51.93
2018-02-09T14:51:24.053Z,51.90
2018-02-09T14:53:54.988Z,52.00
2018-02-09T14:56:25.277Z,48.93
2018-02-09T14:59:05.236Z,44.40
2018-02-09T15:01:33.055Z,46.53
2018-02-09T15:04:00.565Z,40.40
2018-02-09T15:06:28.056Z,48.50
2018-02-09T15:08:56.439Z,42.60
2018-02-09T15:11:25.638Z,44.47
2018-02-09T15:13:53.224Z,41.97
2018-02-09T15:16:24.852Z,44.27
2018-02-09T15:18:53.835Z,44.00
2018-02-09T15:21:21.660Z,45.97
2018-02-09T15:23:50.580Z,47.23
2018-02-09T15:26:18.894Z,42.73
2018-02-09T15:28:47.496Z,39.60
2018-02-09T15:31:16.298Z,36.83
2018-02-09T15:33:48.081Z,40.20
2018-02-09T15:36:19.091Z,42.10
2018-02-09T15:38:48.752Z,33.40
2018-02-09T15:41:18.480Z,36.23
2018-02-09T15:43:53.305Z,37.07
2018-02-09T15:46:24.119Z,38.20
2018-02-09T15:48:54.728Z,36.63
2018-02-09T15:51:24.948Z,37.23
2018-02-09T15:53:55.208Z,33.72
2018-02-09T15:56:22.834Z,35.40
2018-02-09T15:58:54.015Z,30.62
2018-02-09T16:01:50.133Z,40.47
2018-02-09T16:04:24.236Z,30.73
2018-02-09T16:07:00.914Z,32.78
2018-02-09T16:09:28.424Z,32.40
2018-02-09T16:11:55.928Z,34.10
2018-02-09T16:14:25.421Z,32.50
2018-02-09T16:16:55.001Z,37.60
2018-02-09T16:19:23.069Z,31.20
2018-02-09T16:21:54.300Z,42.22
2018-02-09T16:24:24.900Z,27.83
2018-02-09T16:26:55.244Z,31.83
2018-02-09T16:29:25.137Z,32.17
2018-02-09T16:31:54.916Z,35.40
2018-02-09T16:34:25.050Z,41.37
2018-02-09T16:36:55.148Z,38.77
2018-02-09T16:39:22.958Z,36.25
2018-02-09T16:41:54.800Z,33.30
2018-02-09T16:44:24.873Z,32.70
2018-02-09T16:46:54.364Z,29.43
2018-02-09T16:49:22.835Z,35.42
2018-02-09T16:51:54.946Z,31.08
2018-02-09T16:54:23.645Z,36.03
2018-02-09T16:56:55.313Z,37.33
2018-02-09T16:59:24.084Z,31.58
2018-02-09T17:01:55.514Z,34.75
2018-02-09T17:04:25.592Z,38.58
2018-02-09T17:06:59.022Z,29.67
2018-02-09T17:09:34.842Z,34.97
2018-02-09T17:12:03.612Z,30.73
2018-02-09T17:14:31.165Z,27.05
2018-02-09T17:17:23.553Z,41.53
2018-02-09T17:19:53.912Z,29.73
2018-02-09T17:22:22.053Z,24.47
2018-02-09T17:24:51.306Z,34.83
2018-02-09T17:27:24.348Z,31.60
2018-02-09T17:29:52.200Z,43.33
2018-02-09T17:32:21.536Z,31.35
2018-02-09T17:34:59.451Z,29.85
2018-02-09T17:37:28.060Z,31.57
2018-02-09T17:39:56.088Z,35.50
2018-02-09T17:42:25.676Z,29.23
2018-02-09T17:44:53.408Z,29.95
2018-02-09T17:47:24.893Z,36.28
2018-02-09T17:49:52.829Z,30.37
2018-02-09T17:52:21.161Z,29.77
2018-02-09T17:54:55.715Z,30.77
2018-02-09T17:57:25.524Z,34.25
2018-02-09T17:59:55.799Z,26.62
2018-02-09T18:02:38.548Z,27.27
2018-02-09T18:05:11.968Z,28.83
2018-02-09T18:07:49.942Z,31.20
2018-02-09T18:10:25.755Z,26.60
2018-02-09T18:13:00.446Z,29.87
2018-02-09T18:15:27.968Z,31.55
2018-02-09T18:17:58.617Z,31.80
2018-02-09T18:20:26.920Z,29.12
2018-02-09T18:23:03.433Z,33.33
2018-02-09T18:25:30.956Z,33.15
2018-02-09T18:27:58.515Z,29.50
2018-02-09T18:30:26.193Z,31.13
2018-02-09T18:32:55.994Z,31.40
2018-02-09T18:35:26.088Z,31.83
2018-02-09T18:37:56.269Z,32.42
2018-02-09T18:40:23.867Z,29.00
2018-02-09T18:42:55.518Z,32.50
2018-02-09T18:45:23.293Z,26.83
2018-02-09T18:47:51.431Z,33.08
2018-02-09T18:50:25.900Z,27.63
2018-02-09T18:52:55.065Z,33.90
2018-02-09T18:55:23.144Z,34.00
2018-02-09T18:57:52.012Z,25.70
2018-02-09T19:00:22.061Z,33.22
2018-02-09T19:03:04.036Z,31.67
2018-02-09T19:05:31.552Z,27.80
2018-02-09T19:07:59.083Z,32.13
2018-02-09T19:10:29.026Z,32.30
2018-02-09T19:12:56.524Z,33.95
2018-02-09T19:15:24.049Z,31.00
2018-02-09T19:17:55.795Z,31.65
2018-02-09T19:20:23.875Z,30.25
2018-02-09T19:23:01.032Z,34.47
2018-02-09T19:25:28.544Z,41.60
2018-02-09T19:28:06.712Z,24.90
2018-02-09T19:30:34.237Z,27.65
2018-02-09T19:33:01.737Z,24.92
2018-02-09T19:35:29.257Z,34.38
2018-02-09T19:37:56.749Z,31.67
2018-02-09T19:40:24.949Z,30.92
2018-02-09T19:42:55.228Z,28.63
2018-02-09T19:45:25.281Z,28.73
2018-02-09T19:47:55.097Z,31.58
2018-02-09T19:50:25.137Z,29.90
2018-02-09T19:52:55.500Z,31.67
2018-02-09T19:55:30.328Z,31.30
2018-02-09T19:57:57.840Z,27.97
2018-02-09T20:00:25.346Z,31.67
2018-02-09T20:02:53.608Z,23.87
2018-02-09T20:05:24.936Z,24.80
2018-02-09T20:07:54.480Z,26.42
2018-02-09T20:10:37.792Z,26.03
2018-02-09T20:13:05.293Z,26.63
2018-02-09T20:15:32.826Z,27.80
2018-02-09T20:18:00.372Z,24.00
2018-02-09T20:20:27.881Z,27.77
2018-02-09T20:22:55.376Z,23.93
2018-02-09T20:25:25.096Z,23.70
2018-02-09T20:27:55.201Z,32.17
2018-02-09T20:30:24.900Z,25.45
2018-02-09T20:32:53.247Z,27.85
2018-02-09T20:35:22.177Z,31.77
2018-02-09T20:37:50.902Z,26.08
2018-02-09T20:40:27.749Z,26.93
2018-02-09T20:42:55.416Z,25.37
2018-02-09T20:45:25.256Z,30.47
2018-02-09T20:47:53.004Z,24.42
2018-02-09T20:50:24.928Z,27.30
2018-02-09T20:52:55.584Z,29.00
2018-02-09T20:55:23.294Z,31.60
2018-02-09T20:57:54.928Z,24.07
2018-02-09T21:00:25.241Z,26.20
2018-02-09T21:02:53.309Z,25.37
2018-02-09T21:05:25.079Z,28.97
2018-02-09T21:07:55.320Z,28.97
2018-02-09T21:10:25.320Z,28.17
2018-02-09T21:12:55.544Z,29.23
2018-02-09T21:15:23.268Z,26.83
2018-02-09T21:17:51.738Z,33.97
2018-02-09T21:20:22.265Z,28.08
2018-02-09T21:22:54.196Z,28.07
2018-02-09T21:25:25.180Z,32.83
2018-02-09T21:27:55.553Z,26.70
2018-02-09T21:30:28.200Z,30.57
2018-02-09T21:32:55.736Z,29.33
2018-02-09T21:35:24.764Z,28.43
2018-02-09T21:37:55.396Z,25.63
2018-02-09T21:40:25.341Z,26.17
2018-02-09T21:43:01.232Z,27.43
2018-02-09T21:45:28.732Z,34.05
2018-02-09T21:47:57.043Z,25.60
2018-02-09T21:50:25.717Z,27.40
2018-02-09T21:53:01.232Z,23.67
2018-02-09T21:55:28.720Z,27.50
2018-02-09T21:57:56.232Z,29.97
2018-02-09T22:00:25.835Z,30.47
2018-02-09T22:02:55.432Z,31.30
2018-02-09T22:05:27.808Z,33.93
2018-02-09T22:07:55.740Z,27.10
2018-02-09T22:10:25.524Z,32.10
2018-02-09T22:12:55.749Z,33.03
2018-02-09T22:15:23.436Z,31.17
2018-02-09T22:17:54.940Z,30.20
2018-02-09T22:20:25.774Z,30.20
2018-02-09T22:22:55.449Z,32.67
2018-02-09T22:25:25.737Z,29.93
2018-02-09T22:27:53.732Z,28.67
2018-02-09T22:30:22.658Z,32.33
2018-02-09T22:32:55.310Z,31.57
2018-02-09T22:35:25.601Z,31.10
2018-02-09T22:37:53.664Z,31.77
2018-02-09T22:40:23.525Z,32.70
2018-02-09T22:42:55.426Z,27.98
2018-02-09T22:45:23.965Z,29.47
2018-02-09T22:47:55.644Z,29.45
2018-02-09T22:50:23.766Z,32.20
2018-02-09T22:52:53.437Z,35.47
2018-02-09T22:55:23.345Z,30.53
2018-02-09T22:57:55.816Z,29.10
2018-02-09T23:00:23.884Z,33.87
2018-02-09T23:02:53.048Z,36.10
2018-02-09T23:05:30.876Z,31.30
2018-02-09T23:07:58.392Z,33.93
2018-02-09T23:10:27.311Z,33.97
2018-02-09T23:12:57.850Z,35.40
2018-02-09T23:15:26.457Z,31.93
2018-02-09T23:17:53.959Z,33.00
2018-02-09T23:20:25.717Z,34.30
2018-02-09T23:22:55.228Z,40.13
2018-02-09T23:25:48.293Z,36.10
2018-02-09T23:28:23.009Z,32.47
2018-02-09T23:30:57.447Z,40.90
2018-02-09T23:33:25.109Z,39.97
2018-02-09T23:36:00.016Z,37.43
2018-02-09T23:38:28.208Z,36.97
2018-02-09T23:40:55.720Z,40.15
2018-02-09T23:43:26.044Z,37.35
2018-02-09T23:45:55.285Z,38.05
2018-02-09T23:48:24.581Z,42.20
2018-02-09T23:50:55.920Z,46.22
2018-02-09T23:53:27.070Z,43.60
2018-02-09T23:55:54.980Z,41.88
2018-02-09T23:58:25.314Z,49.85
